JST811 YMML-YBPN
Flight info
| Callsign | JST811 |
|---|---|
| Flight time | N/A |
| Altitude | 36000 |
| Route | MNG Q76 TOBOB/N0448F370 DCT BEETI DCT 25S148E/N0458F380 DCT EML/N0383F200 W806 PN |
| Aircraft | A320/M-SDE3FGHIRWY/LB1 |
Departure
| Time | 2026-05-08 05:02 |
|---|---|
| Airport | Melbourne Airport (YMML) |
Arrival
| Time | N/A |
|---|---|
| Airport | Proserpine Whitsunday Coast Airport (YBPN) |
| Time | Latitude | Longitude | Altitude | Speed | Heading |
|---|---|---|---|---|---|
| 2026-05-08 04:29 | -37.67353 | 144.84629 | 386 ft | 0 kts | 352° |
| 2026-05-08 04:50 | -37.67359 | 144.84630 | 385 ft | 3 kts | 352° |
| 2026-05-08 04:50 | -37.67377 | 144.84633 | 385 ft | 3 kts | 352° |
| 2026-05-08 04:50 | -37.67395 | 144.84636 | 384 ft | 3 kts | 352° |
| 2026-05-08 04:51 | -37.67413 | 144.84639 | 383 ft | 3 kts | 352° |
| 2026-05-08 04:51 | -37.67430 | 144.84644 | 383 ft | 3 kts | 327° |
| 2026-05-08 04:51 | -37.67443 | 144.84659 | 382 ft | 3 kts | 291° |
| 2026-05-08 04:51 | -37.67447 | 144.84680 | 383 ft | 2 kts | 274° |
| 2026-05-08 04:52 | -37.67448 | 144.84701 | 383 ft | 1 kts | 274° |
| 2026-05-08 04:52 | -37.67448 | 144.84702 | 383 ft | 0 kts | 274° |
| 2026-05-08 04:54 | -37.67448 | 144.84698 | 383 ft | 2 kts | 275° |
| 2026-05-08 04:55 | -37.67446 | 144.84668 | 383 ft | 5 kts | 275° |
| 2026-05-08 04:55 | -37.67450 | 144.84605 | 381 ft | 9 kts | 262° |
| 2026-05-08 04:55 | -37.67462 | 144.84505 | 379 ft | 14 kts | 262° |
| 2026-05-08 04:55 | -37.67476 | 144.84368 | 377 ft | 18 kts | 262° |
| 2026-05-08 04:56 | -37.67495 | 144.84200 | 375 ft | 21 kts | 264° |
| 2026-05-08 04:56 | -37.67408 | 144.84097 | 378 ft | 19 kts | 350° |
| 2026-05-08 04:56 | -37.67280 | 144.84075 | 382 ft | 18 kts | 352° |
| 2026-05-08 04:56 | -37.67158 | 144.84052 | 386 ft | 17 kts | 350° |
| 2026-05-08 04:57 | -37.67044 | 144.84031 | 390 ft | 16 kts | 352° |
| 2026-05-08 04:57 | -37.66936 | 144.84011 | 393 ft | 15 kts | 352° |
| 2026-05-08 04:57 | -37.66833 | 144.83993 | 394 ft | 15 kts | 352° |
| 2026-05-08 04:57 | -37.66741 | 144.83978 | 399 ft | 11 kts | 356° |
| 2026-05-08 04:58 | -37.66670 | 144.83998 | 400 ft | 10 kts | 22° |
| 2026-05-08 04:58 | -37.66624 | 144.84021 | 403 ft | 3 kts | 22° |
| 2026-05-08 04:58 | -37.66605 | 144.84031 | 405 ft | 3 kts | 22° |
| 2026-05-08 04:58 | -37.66582 | 144.84047 | 405 ft | 6 kts | 38° |
| 2026-05-08 04:59 | -37.66552 | 144.84111 | 408 ft | 11 kts | 68° |
| 2026-05-08 04:59 | -37.66535 | 144.84228 | 410 ft | 15 kts | 81° |
| 2026-05-08 04:59 | -37.66519 | 144.84366 | 412 ft | 17 kts | 81° |
| 2026-05-08 04:59 | -37.66501 | 144.84523 | 411 ft | 19 kts | 81° |
| 2026-05-08 05:00 | -37.66479 | 144.84700 | 415 ft | 22 kts | 81° |
| 2026-05-08 05:00 | -37.66460 | 144.84861 | 412 ft | 14 kts | 83° |
| 2026-05-08 05:00 | -37.66420 | 144.84943 | 413 ft | 12 kts | 22° |
| 2026-05-08 05:00 | -37.66372 | 144.84931 | 412 ft | 8 kts | 329° |
| 2026-05-08 05:01 | -37.66319 | 144.84880 | 414 ft | 11 kts | 321° |
| 2026-05-08 05:01 | -37.66255 | 144.84811 | 410 ft | 13 kts | 313° |
| 2026-05-08 05:01 | -37.66222 | 144.84689 | 417 ft | 22 kts | 272° |
| 2026-05-08 05:01 | -37.66200 | 144.84236 | 410 ft | 84 kts | 275° |
| 2026-05-08 05:02 | -37.66134 | 144.83267 | 412 ft | 135 kts | 275° |
| 2026-05-08 05:02 | -37.66073 | 144.81984 | 719 ft | 146 kts | 268° |
| 2026-05-08 05:02 | -37.66002 | 144.80716 | 1435 ft | 144 kts | 268° |
| 2026-05-08 05:02 | -37.65951 | 144.79886 | 1882 ft | 142 kts | 268° |
| 2026-05-08 05:03 | -37.65851 | 144.78154 | 2450 ft | 161 kts | 267° |
| 2026-05-08 05:03 | -37.65798 | 144.77178 | 2657 ft | 176 kts | 268° |
| 2026-05-08 05:03 | -37.65705 | 144.75538 | 2994 ft | 198 kts | 269° |
| 2026-05-08 05:03 | -37.65599 | 144.73700 | 3353 ft | 222 kts | 269° |
| 2026-05-08 05:04 | -37.65479 | 144.71667 | 3948 ft | 239 kts | 270° |
| 2026-05-08 05:04 | -37.65330 | 144.69548 | 4814 ft | 247 kts | 275° |
| 2026-05-08 05:04 | -37.64765 | 144.67460 | 5689 ft | 259 kts | 293° |
| 2026-05-08 05:04 | -37.63618 | 144.65631 | 6524 ft | 274 kts | 313° |
| 2026-05-08 05:05 | -37.61951 | 144.64359 | 7311 ft | 290 kts | 335° |
| 2026-05-08 05:05 | -37.59994 | 144.63607 | 8045 ft | 298 kts | 339° |
| 2026-05-08 05:05 | -37.57971 | 144.62899 | 8795 ft | 307 kts | 345° |
| 2026-05-08 05:05 | -37.55805 | 144.62801 | 9505 ft | 319 kts | 7° |
| 2026-05-08 05:06 | -37.53666 | 144.63629 | 10204 ft | 326 kts | 29° |
| 2026-05-08 05:06 | -37.51834 | 144.65299 | 10602 ft | 337 kts | 51° |
| 2026-05-08 05:06 | -37.50330 | 144.67671 | 10789 ft | 356 kts | 58° |
| 2026-05-08 05:06 | -37.48801 | 144.70238 | 11098 ft | 373 kts | 56° |
| 2026-05-08 05:07 | -37.46996 | 144.72651 | 11648 ft | 385 kts | 44° |
| 2026-05-08 05:07 | -37.44797 | 144.74646 | 12228 ft | 395 kts | 35° |
| 2026-05-08 05:07 | -37.42459 | 144.76511 | 12821 ft | 401 kts | 35° |
| 2026-05-08 05:07 | -37.40087 | 144.78403 | 13405 ft | 408 kts | 35° |
| 2026-05-08 05:08 | -37.37676 | 144.80329 | 14000 ft | 414 kts | 36° |
| 2026-05-08 05:08 | -37.35227 | 144.82290 | 14522 ft | 419 kts | 36° |
| 2026-05-08 05:08 | -37.32755 | 144.84270 | 15099 ft | 423 kts | 35° |
| 2026-05-08 05:08 | -37.30264 | 144.86263 | 15678 ft | 426 kts | 35° |
| 2026-05-08 05:09 | -37.27755 | 144.88272 | 16225 ft | 430 kts | 35° |
| 2026-05-08 05:09 | -37.25222 | 144.90300 | 16803 ft | 433 kts | 35° |
| 2026-05-08 05:09 | -37.22671 | 144.92343 | 17369 ft | 436 kts | 35° |
| 2026-05-08 05:09 | -37.20132 | 144.94371 | 17932 ft | 440 kts | 35° |
| 2026-05-08 05:10 | -37.17537 | 144.96441 | 18515 ft | 443 kts | 35° |
| 2026-05-08 05:10 | -37.12292 | 145.00616 | 19576 ft | 450 kts | 35° |
| 2026-05-08 05:10 | -37.09635 | 145.02729 | 20124 ft | 453 kts | 35° |
| 2026-05-08 05:11 | -37.06953 | 145.04862 | 20664 ft | 456 kts | 34° |
| 2026-05-08 05:11 | -37.04267 | 145.06998 | 21190 ft | 459 kts | 34° |
| 2026-05-08 05:11 | -37.01561 | 145.09147 | 21705 ft | 462 kts | 34° |
| 2026-05-08 05:11 | -36.98840 | 145.11305 | 22186 ft | 465 kts | 34° |
| 2026-05-08 05:12 | -36.96090 | 145.13482 | 22689 ft | 468 kts | 34° |
| 2026-05-08 05:12 | -36.93320 | 145.15643 | 23179 ft | 472 kts | 31° |
| 2026-05-08 05:12 | -36.90344 | 145.17403 | 23641 ft | 476 kts | 20° |
| 2026-05-08 05:12 | -36.87156 | 145.18544 | 24046 ft | 478 kts | 9° |
| 2026-05-08 05:13 | -36.83857 | 145.19037 | 24435 ft | 477 kts | 359° |
| 2026-05-08 05:13 | -36.80578 | 145.18936 | 24823 ft | 477 kts | 354° |
| 2026-05-08 05:13 | -36.77251 | 145.18726 | 25205 ft | 480 kts | 354° |
| 2026-05-08 05:13 | -36.73913 | 145.18526 | 25580 ft | 482 kts | 354° |
| 2026-05-08 05:14 | -36.70554 | 145.18330 | 25947 ft | 484 kts | 354° |
| 2026-05-08 05:14 | -36.67180 | 145.18131 | 26313 ft | 486 kts | 354° |
| 2026-05-08 05:14 | -36.63779 | 145.17932 | 26680 ft | 488 kts | 354° |
| 2026-05-08 05:14 | -36.60368 | 145.17735 | 27039 ft | 490 kts | 354° |
| 2026-05-08 05:15 | -36.56994 | 145.17537 | 27384 ft | 492 kts | 354° |
| 2026-05-08 05:15 | -36.53552 | 145.17332 | 27747 ft | 494 kts | 354° |
| 2026-05-08 05:15 | -36.50104 | 145.17127 | 28088 ft | 496 kts | 354° |
| 2026-05-08 05:15 | -36.46647 | 145.16918 | 28445 ft | 498 kts | 354° |
| 2026-05-08 05:16 | -36.43176 | 145.16707 | 28792 ft | 500 kts | 354° |
| 2026-05-08 05:16 | -36.39691 | 145.16502 | 29138 ft | 502 kts | 354° |
| 2026-05-08 05:16 | -36.36235 | 145.16300 | 29463 ft | 504 kts | 354° |
| 2026-05-08 05:16 | -36.32723 | 145.16095 | 29807 ft | 506 kts | 354° |
| 2026-05-08 05:17 | -36.29216 | 145.15893 | 30290 ft | 504 kts | 354° |
| 2026-05-08 05:17 | -36.25718 | 145.15688 | 30722 ft | 502 kts | 354° |
| 2026-05-08 05:17 | -36.22234 | 145.15483 | 31137 ft | 501 kts | 354° |
| 2026-05-08 05:17 | -36.18760 | 145.15278 | 31552 ft | 500 kts | 354° |
| 2026-05-08 05:18 | -36.15288 | 145.15074 | 31968 ft | 498 kts | 355° |
| 2026-05-08 05:18 | -36.11831 | 145.14872 | 32392 ft | 497 kts | 355° |
| 2026-05-08 05:18 | -36.08387 | 145.14671 | 32823 ft | 496 kts | 355° |
| 2026-05-08 05:18 | -36.04945 | 145.14470 | 33252 ft | 494 kts | 355° |
| 2026-05-08 05:19 | -36.01513 | 145.14266 | 33680 ft | 493 kts | 355° |
| 2026-05-08 05:19 | -35.98089 | 145.14063 | 34110 ft | 492 kts | 355° |
| 2026-05-08 05:19 | -35.94680 | 145.13862 | 34484 ft | 490 kts | 355° |
| 2026-05-08 05:19 | -35.91275 | 145.13663 | 34846 ft | 489 kts | 355° |
| 2026-05-08 05:20 | -35.87886 | 145.13463 | 35157 ft | 488 kts | 355° |
| 2026-05-08 05:20 | -35.81119 | 145.13069 | 35247 ft | 485 kts | 355° |
| 2026-05-08 05:21 | -35.74357 | 145.12682 | 35255 ft | 484 kts | 355° |
| 2026-05-08 05:21 | -35.67670 | 145.12297 | 35258 ft | 483 kts | 355° |
| 2026-05-08 05:22 | -35.60944 | 145.11907 | 35256 ft | 483 kts | 355° |
| 2026-05-08 05:22 | -35.54257 | 145.11511 | 35259 ft | 482 kts | 355° |
| 2026-05-08 05:23 | -35.47546 | 145.11124 | 35260 ft | 482 kts | 355° |
| 2026-05-08 05:23 | -35.40847 | 145.10737 | 35267 ft | 481 kts | 354° |
| 2026-05-08 05:23 | -35.37579 | 145.10546 | 35181 ft | 470 kts | 355° |
| 2026-05-08 05:24 | -35.34321 | 145.10355 | 35278 ft | 466 kts | 355° |
| 2026-05-08 05:24 | -35.27853 | 145.09985 | 35263 ft | 462 kts | 355° |
| 2026-05-08 05:25 | -35.21462 | 145.09625 | 35275 ft | 462 kts | 355° |
| 2026-05-08 05:25 | -35.15018 | 145.09258 | 35261 ft | 462 kts | 355° |
| 2026-05-08 05:26 | -35.08620 | 145.08893 | 35274 ft | 461 kts | 355° |
| 2026-05-08 05:26 | -35.02234 | 145.08518 | 35271 ft | 461 kts | 355° |
| 2026-05-08 05:27 | -34.95814 | 145.08178 | 35272 ft | 461 kts | 358° |
| 2026-05-08 05:27 | -34.89454 | 145.09251 | 35272 ft | 464 kts | 13° |
| 2026-05-08 05:28 | -34.83246 | 145.11224 | 35274 ft | 464 kts | 13° |
| 2026-05-08 05:28 | -34.76990 | 145.13191 | 35275 ft | 464 kts | 13° |
| 2026-05-08 05:29 | -34.70732 | 145.15155 | 35274 ft | 464 kts | 13° |
| 2026-05-08 05:29 | -34.64479 | 145.17118 | 35276 ft | 464 kts | 13° |
| 2026-05-08 05:30 | -34.58226 | 145.19078 | 35272 ft | 464 kts | 13° |
| 2026-05-08 05:30 | -34.51932 | 145.21042 | 35275 ft | 471 kts | 13° |
| 2026-05-08 05:31 | -34.45567 | 145.23025 | 35274 ft | 473 kts | 13° |
| 2026-05-08 05:31 | -34.39170 | 145.25024 | 35279 ft | 473 kts | 13° |
| 2026-05-08 05:32 | -34.32823 | 145.27005 | 35276 ft | 474 kts | 13° |
| 2026-05-08 05:32 | -34.26420 | 145.28986 | 35277 ft | 474 kts | 13° |
| 2026-05-08 05:33 | -34.20064 | 145.30948 | 35274 ft | 474 kts | 13° |
| 2026-05-08 05:33 | -34.13652 | 145.32933 | 35278 ft | 474 kts | 13° |
| 2026-05-08 05:34 | -34.07248 | 145.34923 | 35276 ft | 474 kts | 13° |
| 2026-05-08 05:34 | -34.00894 | 145.36888 | 35273 ft | 474 kts | 13° |
| 2026-05-08 05:35 | -33.94492 | 145.38867 | 35280 ft | 474 kts | 13° |
| 2026-05-08 05:35 | -33.88100 | 145.40836 | 35281 ft | 474 kts | 13° |
| 2026-05-08 05:36 | -33.81730 | 145.42791 | 35280 ft | 474 kts | 13° |
| 2026-05-08 05:36 | -33.75340 | 145.44745 | 35280 ft | 474 kts | 13° |
| 2026-05-08 05:37 | -33.68939 | 145.46707 | 35282 ft | 474 kts | 13° |
| 2026-05-08 05:37 | -33.62554 | 145.48667 | 35282 ft | 474 kts | 13° |
| 2026-05-08 05:38 | -33.56166 | 145.50621 | 35282 ft | 473 kts | 13° |
| 2026-05-08 05:38 | -33.49777 | 145.52566 | 35284 ft | 473 kts | 13° |
| 2026-05-08 05:39 | -33.43434 | 145.54497 | 35284 ft | 473 kts | 13° |
| 2026-05-08 05:39 | -33.37042 | 145.56443 | 35283 ft | 472 kts | 13° |
| 2026-05-08 05:40 | -33.30705 | 145.58367 | 35289 ft | 472 kts | 13° |
| 2026-05-08 05:40 | -33.24324 | 145.60300 | 35291 ft | 471 kts | 13° |
| 2026-05-08 05:41 | -33.17950 | 145.62221 | 35291 ft | 471 kts | 13° |
| 2026-05-08 05:41 | -33.13741 | 145.63491 | 35287 ft | 470 kts | 13° |
| 2026-05-08 05:42 | -33.08416 | 145.65110 | 35289 ft | 469 kts | 13° |
| 2026-05-08 05:42 | -33.02081 | 145.67020 | 35293 ft | 468 kts | 13° |
| 2026-05-08 05:43 | -32.95806 | 145.68909 | 35297 ft | 467 kts | 13° |
| 2026-05-08 05:43 | -32.89510 | 145.70802 | 35290 ft | 466 kts | 13° |
| 2026-05-08 05:44 | -32.83241 | 145.72684 | 35292 ft | 464 kts | 13° |
| 2026-05-08 05:44 | -32.76976 | 145.74558 | 35293 ft | 463 kts | 12° |
| 2026-05-08 05:45 | -32.70737 | 145.76423 | 35301 ft | 462 kts | 12° |
| 2026-05-08 05:45 | -32.64503 | 145.78283 | 35299 ft | 461 kts | 12° |
| 2026-05-08 05:46 | -32.58295 | 145.80141 | 35297 ft | 460 kts | 12° |
| 2026-05-08 05:46 | -32.52119 | 145.81980 | 35297 ft | 459 kts | 12° |
| 2026-05-08 05:47 | -32.45914 | 145.83831 | 35295 ft | 458 kts | 12° |
| 2026-05-08 05:47 | -32.39763 | 145.85676 | 35293 ft | 458 kts | 12° |
| 2026-05-08 05:48 | -32.33589 | 145.87510 | 35294 ft | 457 kts | 12° |
| 2026-05-08 05:48 | -32.27405 | 145.89326 | 35283 ft | 457 kts | 12° |
| 2026-05-08 05:49 | -32.21238 | 145.91140 | 35285 ft | 457 kts | 12° |
| 2026-05-08 05:49 | -32.16112 | 145.92662 | 35281 ft | 457 kts | 12° |
| 2026-05-08 05:50 | -32.09947 | 145.94480 | 35271 ft | 457 kts | 12° |
| 2026-05-08 05:50 | -32.03775 | 145.96299 | 35274 ft | 457 kts | 12° |
| 2026-05-08 05:51 | -31.97604 | 145.98128 | 35276 ft | 457 kts | 12° |
| 2026-05-08 05:51 | -31.91428 | 145.99944 | 35275 ft | 457 kts | 11° |
| 2026-05-08 05:52 | -31.85255 | 146.01748 | 35275 ft | 457 kts | 11° |
| 2026-05-08 05:52 | -31.79071 | 146.03551 | 35275 ft | 457 kts | 11° |
| 2026-05-08 05:53 | -31.72890 | 146.05366 | 35271 ft | 458 kts | 11° |
| 2026-05-08 05:53 | -31.66712 | 146.07176 | 35274 ft | 457 kts | 11° |
| 2026-05-08 05:54 | -31.60541 | 146.08983 | 35277 ft | 457 kts | 11° |
| 2026-05-08 05:54 | -31.54369 | 146.10785 | 35277 ft | 457 kts | 11° |
| 2026-05-08 05:55 | -31.48192 | 146.12573 | 35276 ft | 457 kts | 11° |
| 2026-05-08 05:55 | -31.42015 | 146.14365 | 35278 ft | 457 kts | 11° |
| 2026-05-08 05:56 | -31.35887 | 146.16150 | 35273 ft | 457 kts | 11° |
| 2026-05-08 05:56 | -31.29714 | 146.17947 | 35273 ft | 457 kts | 11° |
| 2026-05-08 05:57 | -31.23544 | 146.19741 | 35271 ft | 457 kts | 11° |
| 2026-05-08 05:57 | -31.17370 | 146.21526 | 35271 ft | 457 kts | 10° |
| 2026-05-08 05:58 | -31.11195 | 146.23306 | 35268 ft | 457 kts | 10° |
| 2026-05-08 05:58 | -31.05013 | 146.25088 | 35266 ft | 457 kts | 10° |
| 2026-05-08 05:59 | -30.98828 | 146.26867 | 35270 ft | 457 kts | 10° |
| 2026-05-08 05:59 | -30.92643 | 146.28638 | 35270 ft | 457 kts | 9° |
| 2026-05-08 06:00 | -30.86470 | 146.30420 | 35269 ft | 457 kts | 9° |
| 2026-05-08 06:00 | -30.80291 | 146.32202 | 35273 ft | 457 kts | 9° |
| 2026-05-08 06:01 | -30.74116 | 146.33970 | 35275 ft | 457 kts | 9° |
| 2026-05-08 06:01 | -30.67944 | 146.35728 | 35276 ft | 457 kts | 9° |
| 2026-05-08 06:02 | -30.61768 | 146.37489 | 35275 ft | 456 kts | 9° |
| 2026-05-08 06:02 | -30.55603 | 146.39248 | 35273 ft | 456 kts | 9° |
| 2026-05-08 06:03 | -30.49438 | 146.41003 | 35269 ft | 456 kts | 8° |
| 2026-05-08 06:03 | -30.43277 | 146.42759 | 35270 ft | 456 kts | 8° |
| 2026-05-08 06:04 | -30.37120 | 146.44513 | 35274 ft | 455 kts | 8° |
| 2026-05-08 06:04 | -30.30967 | 146.46266 | 35277 ft | 455 kts | 8° |
| 2026-05-08 06:05 | -30.24843 | 146.47999 | 35278 ft | 455 kts | 8° |
| 2026-05-08 06:05 | -30.18696 | 146.49739 | 35278 ft | 454 kts | 8° |
| 2026-05-08 06:06 | -30.12572 | 146.51476 | 35276 ft | 454 kts | 8° |
| 2026-05-08 06:06 | -30.06418 | 146.53209 | 35274 ft | 453 kts | 7° |
| 2026-05-08 06:07 | -30.00330 | 146.54921 | 35272 ft | 452 kts | 7° |
| 2026-05-08 06:07 | -29.94196 | 146.56643 | 35272 ft | 452 kts | 7° |
| 2026-05-08 06:08 | -29.88108 | 146.58359 | 35275 ft | 451 kts | 7° |
| 2026-05-08 06:08 | -29.82007 | 146.60085 | 35275 ft | 451 kts | 7° |
| 2026-05-08 06:09 | -29.75909 | 146.61797 | 35274 ft | 450 kts | 7° |
| 2026-05-08 06:09 | -29.69834 | 146.63493 | 35274 ft | 450 kts | 6° |
| 2026-05-08 06:10 | -29.63749 | 146.65192 | 35273 ft | 449 kts | 6° |
| 2026-05-08 06:10 | -29.57707 | 146.66886 | 35274 ft | 449 kts | 6° |
| 2026-05-08 06:11 | -29.51631 | 146.68585 | 35270 ft | 448 kts | 6° |
| 2026-05-08 06:11 | -29.45550 | 146.70283 | 35270 ft | 448 kts | 6° |
| 2026-05-08 06:12 | -29.39518 | 146.71966 | 35270 ft | 448 kts | 6° |
| 2026-05-08 06:12 | -29.33449 | 146.73654 | 35269 ft | 447 kts | 6° |
| 2026-05-08 06:13 | -29.27411 | 146.75326 | 35268 ft | 446 kts | 6° |
| 2026-05-08 06:13 | -29.21390 | 146.76997 | 35270 ft | 446 kts | 6° |
| 2026-05-08 06:14 | -29.15353 | 146.78676 | 35269 ft | 446 kts | 5° |
| 2026-05-08 06:14 | -29.09335 | 146.80350 | 35270 ft | 445 kts | 5° |
| 2026-05-08 06:15 | -29.03313 | 146.82015 | 35269 ft | 444 kts | 5° |
| 2026-05-08 06:15 | -28.97339 | 146.83651 | 35265 ft | 444 kts | 5° |
| 2026-05-08 06:16 | -28.91334 | 146.85305 | 35267 ft | 443 kts | 5° |
| 2026-05-08 06:16 | -28.85327 | 146.86963 | 35266 ft | 443 kts | 5° |
| 2026-05-08 06:17 | -28.76369 | 146.89435 | 35267 ft | 442 kts | 5° |
| 2026-05-08 06:17 | -28.70371 | 146.91084 | 35259 ft | 442 kts | 4° |
| 2026-05-08 06:18 | -28.64407 | 146.92725 | 35270 ft | 441 kts | 4° |
| 2026-05-08 06:18 | -28.58469 | 146.94352 | 35264 ft | 441 kts | 4° |
| 2026-05-08 06:19 | -28.52487 | 146.95985 | 35264 ft | 441 kts | 4° |
| 2026-05-08 06:19 | -28.46533 | 146.97614 | 35263 ft | 440 kts | 4° |
| 2026-05-08 06:20 | -28.40587 | 146.99240 | 35262 ft | 440 kts | 4° |
| 2026-05-08 06:20 | -28.34630 | 147.00866 | 35263 ft | 440 kts | 4° |
| 2026-05-08 06:21 | -28.28715 | 147.02482 | 35261 ft | 439 kts | 4° |
| 2026-05-08 06:21 | -28.22760 | 147.04099 | 35262 ft | 439 kts | 3° |
| 2026-05-08 06:22 | -28.16835 | 147.05706 | 35259 ft | 439 kts | 3° |
| 2026-05-08 06:22 | -28.10889 | 147.07328 | 35260 ft | 438 kts | 3° |
| 2026-05-08 06:23 | -28.04978 | 147.08932 | 35255 ft | 438 kts | 3° |
| 2026-05-08 06:23 | -27.99056 | 147.10666 | 35254 ft | 440 kts | 5° |
| 2026-05-08 06:24 | -27.93142 | 147.12534 | 35260 ft | 441 kts | 5° |
| 2026-05-08 06:24 | -27.87238 | 147.14396 | 35258 ft | 440 kts | 4° |
| 2026-05-08 06:25 | -27.81357 | 147.16201 | 35256 ft | 439 kts | 4° |
| 2026-05-08 06:25 | -27.75417 | 147.17999 | 35253 ft | 439 kts | 4° |
| 2026-05-08 06:26 | -27.69532 | 147.19780 | 35255 ft | 439 kts | 4° |
| 2026-05-08 06:26 | -27.63658 | 147.21564 | 35253 ft | 439 kts | 4° |
| 2026-05-08 06:27 | -27.57756 | 147.23358 | 35252 ft | 438 kts | 4° |
| 2026-05-08 06:27 | -27.51884 | 147.25147 | 35250 ft | 438 kts | 4° |
| 2026-05-08 06:28 | -27.45981 | 147.26951 | 35252 ft | 438 kts | 4° |
| 2026-05-08 06:28 | -27.40118 | 147.28740 | 35251 ft | 438 kts | 4° |
| 2026-05-08 06:29 | -27.34224 | 147.30532 | 35248 ft | 437 kts | 4° |
| 2026-05-08 06:29 | -27.28380 | 147.32294 | 35250 ft | 437 kts | 3° |
| 2026-05-08 06:30 | -27.22505 | 147.34062 | 35247 ft | 437 kts | 3° |
| 2026-05-08 06:30 | -27.16627 | 147.35836 | 35248 ft | 437 kts | 3° |
| 2026-05-08 06:31 | -27.10764 | 147.37609 | 35246 ft | 437 kts | 3° |
| 2026-05-08 06:31 | -27.04888 | 147.39375 | 35246 ft | 436 kts | 3° |
| 2026-05-08 06:32 | -26.99017 | 147.41146 | 35243 ft | 436 kts | 3° |
| 2026-05-08 06:32 | -26.93150 | 147.42918 | 35237 ft | 436 kts | 3° |
| 2026-05-08 06:33 | -26.87311 | 147.44675 | 35240 ft | 436 kts | 3° |
| 2026-05-08 06:33 | -26.81475 | 147.46423 | 35234 ft | 436 kts | 3° |
| 2026-05-08 06:34 | -26.75593 | 147.48185 | 35233 ft | 436 kts | 3° |
| 2026-05-08 06:34 | -26.69724 | 147.49942 | 35239 ft | 436 kts | 3° |
| 2026-05-08 06:35 | -26.63874 | 147.51691 | 35241 ft | 436 kts | 3° |
| 2026-05-08 06:35 | -26.58008 | 147.53447 | 35235 ft | 436 kts | 2° |
| 2026-05-08 06:36 | -26.52148 | 147.55202 | 35241 ft | 436 kts | 2° |
| 2026-05-08 06:36 | -26.47276 | 147.56650 | 35235 ft | 436 kts | 2° |
| 2026-05-08 06:37 | -26.41413 | 147.58392 | 35228 ft | 435 kts | 2° |
| 2026-05-08 06:37 | -26.34600 | 147.60416 | 35224 ft | 435 kts | 2° |
| 2026-05-08 06:38 | -26.29722 | 147.61874 | 35224 ft | 435 kts | 2° |
| 2026-05-08 06:38 | -26.23856 | 147.63629 | 35220 ft | 435 kts | 2° |
| 2026-05-08 06:39 | -26.17984 | 147.65364 | 35221 ft | 435 kts | 2° |
| 2026-05-08 06:39 | -26.12166 | 147.67082 | 35214 ft | 435 kts | 2° |
| 2026-05-08 06:40 | -26.06305 | 147.68816 | 35215 ft | 435 kts | 2° |
| 2026-05-08 06:40 | -26.00489 | 147.70537 | 35209 ft | 435 kts | 2° |
| 2026-05-08 06:41 | -25.94617 | 147.72276 | 35206 ft | 434 kts | 2° |
| 2026-05-08 06:41 | -25.88790 | 147.73999 | 35203 ft | 434 kts | 2° |
| 2026-05-08 06:42 | -25.82939 | 147.75721 | 35201 ft | 434 kts | 2° |
| 2026-05-08 06:42 | -25.77117 | 147.77431 | 35200 ft | 434 kts | 2° |
| 2026-05-08 06:43 | -25.71263 | 147.79154 | 35196 ft | 434 kts | 2° |
| 2026-05-08 06:43 | -25.65411 | 147.80881 | 35195 ft | 434 kts | 2° |
| 2026-05-08 06:44 | -25.59605 | 147.82592 | 35195 ft | 434 kts | 2° |
| 2026-05-08 06:44 | -25.53757 | 147.84304 | 35192 ft | 434 kts | 1° |
| 2026-05-08 06:45 | -25.47892 | 147.86021 | 35191 ft | 435 kts | 1° |
| 2026-05-08 06:45 | -25.42057 | 147.87732 | 35194 ft | 435 kts | 2° |
| 2026-05-08 06:46 | -25.36208 | 147.89452 | 35196 ft | 435 kts | 1° |
| 2026-05-08 06:46 | -25.30356 | 147.91159 | 35206 ft | 435 kts | 1° |
| 2026-05-08 06:47 | -25.24508 | 147.92860 | 35200 ft | 435 kts | 1° |
| 2026-05-08 06:47 | -25.18651 | 147.94567 | 35205 ft | 435 kts | 1° |
| 2026-05-08 06:48 | -25.12805 | 147.96274 | 35195 ft | 435 kts | 1° |
| 2026-05-08 06:48 | -25.06956 | 147.97980 | 35196 ft | 435 kts | 1° |
| 2026-05-08 06:49 | -25.01124 | 147.99672 | 35191 ft | 433 kts | 0° |
| 2026-05-08 06:49 | -24.98201 | 148.00230 | 35188 ft | 419 kts | 353° |
| 2026-05-08 06:49 | -24.95332 | 148.00573 | 35185 ft | 419 kts | 353° |
| 2026-05-08 06:50 | -24.89515 | 148.01269 | 35182 ft | 420 kts | 353° |
| 2026-05-08 06:50 | -24.83700 | 148.01967 | 35175 ft | 420 kts | 353° |
| 2026-05-08 06:51 | -24.77917 | 148.02659 | 35169 ft | 420 kts | 353° |
| 2026-05-08 06:51 | -24.72083 | 148.03356 | 35162 ft | 420 kts | 353° |
| 2026-05-08 06:52 | -24.66264 | 148.04058 | 35160 ft | 421 kts | 353° |
| 2026-05-08 06:52 | -24.60439 | 148.04762 | 35165 ft | 421 kts | 353° |
| 2026-05-08 06:53 | -24.54619 | 148.05460 | 35165 ft | 421 kts | 353° |
| 2026-05-08 06:53 | -24.48806 | 148.06152 | 35157 ft | 420 kts | 353° |
| 2026-05-08 06:54 | -24.43022 | 148.06838 | 35158 ft | 420 kts | 353° |
| 2026-05-08 06:54 | -24.37191 | 148.07536 | 35155 ft | 420 kts | 353° |
| 2026-05-08 06:55 | -24.31365 | 148.08234 | 35159 ft | 420 kts | 353° |
| 2026-05-08 06:55 | -24.25547 | 148.08926 | 35161 ft | 421 kts | 353° |
| 2026-05-08 06:56 | -24.19726 | 148.09623 | 35163 ft | 421 kts | 353° |
| 2026-05-08 06:56 | -24.13939 | 148.10310 | 35167 ft | 421 kts | 353° |
| 2026-05-08 06:57 | -24.08108 | 148.11011 | 35173 ft | 422 kts | 353° |
| 2026-05-08 06:57 | -24.02273 | 148.11712 | 35168 ft | 421 kts | 353° |
| 2026-05-08 06:58 | -23.96442 | 148.12438 | 35163 ft | 424 kts | 355° |
| 2026-05-08 06:58 | -23.90582 | 148.13484 | 35157 ft | 429 kts | 357° |
| 2026-05-08 06:59 | -23.84713 | 148.14672 | 35152 ft | 429 kts | 357° |
| 2026-05-08 06:59 | -23.78845 | 148.15809 | 35146 ft | 428 kts | 356° |
| 2026-05-08 07:00 | -23.72980 | 148.16893 | 35144 ft | 428 kts | 356° |
| 2026-05-08 07:00 | -23.67111 | 148.17970 | 35139 ft | 428 kts | 356° |
| 2026-05-08 07:01 | -23.61234 | 148.19048 | 35134 ft | 428 kts | 356° |
| 2026-05-08 07:01 | -23.55352 | 148.20132 | 35137 ft | 429 kts | 356° |
| 2026-05-08 07:02 | -23.49467 | 148.21224 | 35135 ft | 429 kts | 356° |
| 2026-05-08 07:02 | -23.43581 | 148.22309 | 35133 ft | 429 kts | 356° |
| 2026-05-08 07:03 | -23.37693 | 148.23398 | 35132 ft | 429 kts | 356° |
| 2026-05-08 07:03 | -23.31802 | 148.24485 | 35131 ft | 429 kts | 356° |
| 2026-05-08 07:04 | -23.25907 | 148.25579 | 35137 ft | 430 kts | 357° |
| 2026-05-08 07:04 | -23.20013 | 148.26662 | 35138 ft | 430 kts | 357° |
| 2026-05-08 07:05 | -23.14119 | 148.27742 | 35136 ft | 430 kts | 357° |
| 2026-05-08 07:05 | -23.08219 | 148.28824 | 35132 ft | 430 kts | 357° |
| 2026-05-08 07:06 | -23.02319 | 148.29905 | 35131 ft | 430 kts | 357° |
| 2026-05-08 07:06 | -22.96415 | 148.30984 | 35131 ft | 431 kts | 357° |
| 2026-05-08 07:07 | -22.90510 | 148.32068 | 35125 ft | 431 kts | 357° |
| 2026-05-08 07:07 | -22.84597 | 148.33145 | 35126 ft | 431 kts | 357° |
| 2026-05-08 07:08 | -22.78697 | 148.34224 | 35121 ft | 431 kts | 358° |
| 2026-05-08 07:08 | -22.72778 | 148.35303 | 35125 ft | 432 kts | 357° |
| 2026-05-08 07:09 | -22.66862 | 148.36389 | 35128 ft | 431 kts | 357° |
| 2026-05-08 07:09 | -22.60939 | 148.37469 | 35126 ft | 431 kts | 357° |
| 2026-05-08 07:10 | -22.55020 | 148.38536 | 35122 ft | 431 kts | 357° |
| 2026-05-08 07:10 | -22.49097 | 148.39617 | 35119 ft | 432 kts | 357° |